createdAt,value
2023-01-10T00:00:49.134Z,4.47
2023-01-10T00:03:16.011Z,6.38
2023-01-10T00:05:42.635Z,4.63
2023-01-10T00:08:14.791Z,6.03
2023-01-10T00:10:41.740Z,6.28
2023-01-10T00:13:23.708Z,4.45
2023-01-10T00:15:52.189Z,5.05
2023-01-10T00:18:19.183Z,3.97
2023-01-10T00:20:47.545Z,5.57
2023-01-10T00:23:14.452Z,4.18
2023-01-10T00:25:42.163Z,4.93
2023-01-10T00:28:20.928Z,4.85
2023-01-10T00:30:54.806Z,2.95
2023-01-10T00:33:21.619Z,4.45
2023-01-10T00:35:48.408Z,4.43
2023-01-10T00:38:15.204Z,3.25
2023-01-10T00:40:41.830Z,5.70
2023-01-10T00:43:28.575Z,5.45
2023-01-10T00:45:55.289Z,4.35
2023-01-10T00:48:21.884Z,7.85
2023-01-10T00:50:48.497Z,6.45
2023-01-10T00:53:15.262Z,4.40
2023-01-10T00:55:42.415Z,4.25
2023-01-10T00:58:11.619Z,6.07
2023-01-10T01:00:39.123Z,5.10
2023-01-10T01:03:07.104Z,4.18
2023-01-10T01:05:39.458Z,6.15
2023-01-10T01:08:06.043Z,4.43
2023-01-10T01:10:32.742Z,4.60
2023-01-10T01:13:06.115Z,4.90
2023-01-10T01:15:35.084Z,5.97
2023-01-10T01:18:02.191Z,5.15
2023-01-10T01:20:29.433Z,6.97
2023-01-10T01:22:56.047Z,6.03
2023-01-10T01:25:22.877Z,3.55
2023-01-10T01:27:49.603Z,6.22
2023-01-10T01:30:16.446Z,5.90
2023-01-10T01:32:43.270Z,5.70
2023-01-10T01:35:14.336Z,5.00
2023-01-10T01:37:41.835Z,3.97
2023-01-10T01:40:18.013Z,5.25
2023-01-10T01:42:45.767Z,6.45
2023-01-10T01:45:15.162Z,4.28
2023-01-10T01:47:49.869Z,3.80
2023-01-10T01:50:24.676Z,7.15
2023-01-10T01:52:55.234Z,7.18
2023-01-10T01:55:22.910Z,3.13
2023-01-10T01:57:52.429Z,6.40
2023-01-10T02:00:19.341Z,6.88
2023-01-10T02:03:02.245Z,2.95
2023-01-10T02:05:31.948Z,3.95
2023-01-10T02:08:02.148Z,5.78
2023-01-10T02:10:53.283Z,3.97
2023-01-10T02:13:24.325Z,4.50
2023-01-10T02:15:51.071Z,8.48
2023-01-10T02:18:19.093Z,7.65
2023-01-10T02:21:23.035Z,6.47
2023-01-10T02:24:08.140Z,7.80
2023-01-10T02:26:46.084Z,5.80
2023-01-10T02:29:33.704Z,4.97
2023-01-10T02:32:09.309Z,4.60
2023-01-10T02:35:02.559Z,6.60
2023-01-10T02:37:41.055Z,6.72
2023-01-10T02:40:19.124Z,3.95
2023-01-10T02:43:06.240Z,4.68
2023-01-10T02:45:42.178Z,5.18
2023-01-10T02:48:09.048Z,4.68
2023-01-10T02:50:41.460Z,5.57
2023-01-10T02:53:19.869Z,5.93
2023-01-10T02:55:49.482Z,5.18
2023-01-10T02:58:29.830Z,3.45
2023-01-10T03:01:16.848Z,2.35
2023-01-10T03:04:03.556Z,4.00
2023-01-10T03:07:00.115Z,2.83
2023-01-10T03:09:41.159Z,3.40
2023-01-10T03:12:21.260Z,4.53
2023-01-10T03:14:49.007Z,4.53
2023-01-10T03:17:16.922Z,3.00
2023-01-10T03:19:48.680Z,2.50
2023-01-10T03:22:15.352Z,3.38
2023-01-10T03:24:49.019Z,4.57
2023-01-10T03:27:20.495Z,4.05
2023-01-10T03:30:01.861Z,3.55
2023-01-10T03:32:30.863Z,2.97
2023-01-10T03:34:59.794Z,4.07
2023-01-10T03:37:49.499Z,5.32
2023-01-10T03:40:39.051Z,3.33
2023-01-10T03:43:37.728Z,2.60
2023-01-10T03:46:11.848Z,4.70
2023-01-10T03:48:42.152Z,3.67
2023-01-10T03:51:09.875Z,4.60
2023-01-10T03:53:39.312Z,4.60
2023-01-10T03:56:07.050Z,3.25
2023-01-10T03:58:34.084Z,5.68
2023-01-10T04:01:01.071Z,4.45
2023-01-10T04:03:27.721Z,2.22
2023-01-10T04:05:54.323Z,2.35
2023-01-10T04:08:20.936Z,5.22
2023-01-10T04:10:49.664Z,3.88
2023-01-10T04:13:16.262Z,2.40
2023-01-10T04:15:43.001Z,2.97
2023-01-10T04:18:09.572Z,3.42
2023-01-10T04:20:36.150Z,4.57
2023-01-10T04:23:02.749Z,5.32
2023-01-10T04:25:29.333Z,4.50
2023-01-10T04:27:55.985Z,5.85
2023-01-10T04:30:22.635Z,6.13
2023-01-10T04:32:49.313Z,4.28
2023-01-10T04:35:15.975Z,3.10
2023-01-10T04:37:43.202Z,3.85
2023-01-10T04:40:10.451Z,5.35
2023-01-10T04:42:37.052Z,3.90
2023-01-10T04:45:04.021Z,3.25
2023-01-10T04:47:30.610Z,3.97
2023-01-10T04:49:57.172Z,4.88
2023-01-10T04:52:25.993Z,4.72
2023-01-10T04:54:52.602Z,5.93
2023-01-10T04:57:19.235Z,4.38
2023-01-10T04:59:45.836Z,4.15
2023-01-10T05:02:12.551Z,7.68
2023-01-10T05:04:39.235Z,4.47
2023-01-10T05:07:05.886Z,3.53
2023-01-10T05:09:32.447Z,5.53
2023-01-10T05:11:59.045Z,5.35
2023-01-10T05:14:25.704Z,4.60
2023-01-10T05:16:52.452Z,5.55
2023-01-10T05:19:19.122Z,6.97
2023-01-10T05:21:45.717Z,4.78
2023-01-10T05:24:12.372Z,5.30
2023-01-10T05:26:39.017Z,7.78
2023-01-10T05:29:05.615Z,4.03
2023-01-10T05:31:32.295Z,4.72
2023-01-10T05:33:58.975Z,5.32
2023-01-10T05:36:25.603Z,4.10
2023-01-10T05:38:52.179Z,4.35
2023-01-10T05:41:18.791Z,5.13
2023-01-10T05:43:45.463Z,3.88
2023-01-10T05:46:12.135Z,5.00
2023-01-10T05:48:38.779Z,4.40
2023-01-10T05:51:05.722Z,5.88
2023-01-10T05:53:32.287Z,4.78
2023-01-10T05:56:01.311Z,3.58
2023-01-10T05:58:29.480Z,4.25
2023-01-10T06:00:56.925Z,4.10
2023-01-10T06:03:24.645Z,4.05
2023-01-10T06:05:51.263Z,3.88
2023-01-10T06:08:17.851Z,4.00
2023-01-10T06:10:44.640Z,3.33
2023-01-10T06:13:12.198Z,7.40
2023-01-10T06:15:39.069Z,2.80
2023-01-10T06:18:06.558Z,2.97
2023-01-10T06:20:33.193Z,3.47
2023-01-10T06:23:02.160Z,5.20
2023-01-10T06:25:29.268Z,4.60
2023-01-10T06:27:55.990Z,5.05
2023-01-10T06:30:22.818Z,4.80
2023-01-10T06:32:49.442Z,5.32
2023-01-10T06:35:17.949Z,2.80
2023-01-10T06:37:44.950Z,3.42
2023-01-10T06:40:12.132Z,6.70
2023-01-10T06:42:40.534Z,4.30
2023-01-10T06:45:07.679Z,4.60
2023-01-10T06:47:34.392Z,4.10
2023-01-10T06:50:01.002Z,6.00
2023-01-10T06:52:27.672Z,2.65
2023-01-10T06:54:54.351Z,3.58
2023-01-10T06:57:21.015Z,2.80
2023-01-10T06:59:47.620Z,3.38
2023-01-10T07:02:14.904Z,3.08
2023-01-10T07:04:41.579Z,3.00
2023-01-10T07:07:08.306Z,3.03
2023-01-10T07:09:34.896Z,2.22
2023-01-10T07:12:01.738Z,3.88
2023-01-10T07:14:28.331Z,4.85
2023-01-10T07:16:54.984Z,6.03
2023-01-10T07:19:21.560Z,3.88
2023-01-10T07:21:48.346Z,3.00
2023-01-10T07:24:15.130Z,5.13
2023-01-10T07:26:41.763Z,6.60
2023-01-10T07:29:08.542Z,4.70
2023-01-10T07:31:35.292Z,3.63
2023-01-10T07:34:01.897Z,4.32
2023-01-10T07:36:28.563Z,4.50
2023-01-10T07:38:55.176Z,6.78
2023-01-10T07:41:21.883Z,5.38
2023-01-10T07:43:49.037Z,6.50
2023-01-10T07:46:16.188Z,9.02
2023-01-10T07:48:42.846Z,7.28
2023-01-10T07:51:09.559Z,7.82
2023-01-10T07:53:36.140Z,7.47
2023-01-10T07:56:03.564Z,10.52
2023-01-10T07:58:30.727Z,6.80
2023-01-10T08:00:58.947Z,9.52
2023-01-10T08:03:26.596Z,11.50
2023-01-10T08:06:07.351Z,8.60
2023-01-10T08:08:34.844Z,11.60
2023-01-10T08:11:02.715Z,13.18
2023-01-10T08:13:31.159Z,11.05
2023-01-10T08:15:58.509Z,9.25
2023-01-10T08:18:25.659Z,10.35
2023-01-10T08:20:53.823Z,10.63
2023-01-10T08:23:21.032Z,13.82
2023-01-10T08:25:47.972Z,13.32
2023-01-10T08:28:15.035Z,11.50
2023-01-10T08:30:41.684Z,12.77
2023-01-10T08:33:10.064Z,11.13
2023-01-10T08:35:43.597Z,11.70
2023-01-10T08:38:11.598Z,9.35
2023-01-10T08:40:38.537Z,9.80
2023-01-10T08:43:07.732Z,10.48
2023-01-10T08:45:34.977Z,9.10
2023-01-10T08:48:02.042Z,8.02
2023-01-10T08:50:28.671Z,7.97
2023-01-10T08:53:01.212Z,9.48
2023-01-10T08:55:30.887Z,10.13
2023-01-10T08:58:00.557Z,13.98
2023-01-10T09:00:28.197Z,7.57
2023-01-10T09:02:54.977Z,8.20
2023-01-10T09:05:27.352Z,6.40
2023-01-10T09:07:58.650Z,8.10
2023-01-10T09:10:25.463Z,8.50
2023-01-10T09:12:55.094Z,6.30
2023-01-10T09:15:27.339Z,10.10
2023-01-10T09:17:56.101Z,9.48
2023-01-10T09:20:28.018Z,8.73
2023-01-10T09:22:55.092Z,8.65
2023-01-10T09:25:21.705Z,9.38
2023-01-10T09:27:55.390Z,12.45
2023-01-10T09:30:21.966Z,9.20
2023-01-10T09:32:53.087Z,10.02
2023-01-10T09:35:19.744Z,11.65
2023-01-10T09:37:46.692Z,10.07
2023-01-10T09:40:19.785Z,12.70
2023-01-10T09:43:16.128Z,15.23
2023-01-10T09:45:51.220Z,7.35
2023-01-10T09:48:52.243Z,11.93
2023-01-10T09:51:25.020Z,9.05
2023-01-10T09:53:57.799Z,11.27
2023-01-10T09:56:29.136Z,10.57
2023-01-10T09:58:57.283Z,8.70
2023-01-10T10:01:29.894Z,8.45
2023-01-10T10:04:46.941Z,9.77
2023-01-10T10:07:14.941Z,9.00
2023-01-10T10:09:42.941Z,11.00
2023-01-10T10:12:41.249Z,11.00
2023-01-10T10:15:13.725Z,11.75
2023-01-10T10:18:24.767Z,12.35
2023-01-10T10:21:17.379Z,9.55
2023-01-10T10:23:43.962Z,11.95
2023-01-10T10:26:19.698Z,9.13
2023-01-10T10:28:53.959Z,8.43
2023-01-10T10:32:04.129Z,7.53
2023-01-10T10:34:37.754Z,8.18
2023-01-10T10:37:24.280Z,14.65
2023-01-10T10:40:04.698Z,9.57
2023-01-10T10:42:38.267Z,10.25
2023-01-10T10:45:20.134Z,12.18
2023-01-10T10:47:57.285Z,10.50
2023-01-10T10:50:35.487Z,9.07
2023-01-10T10:53:03.142Z,10.85
2023-01-10T10:55:32.098Z,13.43
2023-01-10T10:58:01.103Z,13.23
2023-01-10T11:00:29.869Z,7.35
2023-01-10T11:03:16.716Z,9.10
2023-01-10T11:05:46.802Z,7.55
2023-01-10T11:08:16.919Z,8.80
2023-01-10T11:10:48.079Z,5.55
2023-01-10T11:13:32.498Z,7.43
2023-01-10T11:16:00.380Z,7.47
2023-01-10T11:18:29.141Z,6.28
2023-01-10T11:21:00.831Z,4.15
2023-01-10T11:23:31.572Z,8.15
2023-01-10T11:25:58.780Z,7.95
2023-01-10T11:28:30.336Z,9.23
2023-01-10T11:30:57.323Z,8.02
2023-01-10T11:33:29.787Z,7.32
2023-01-10T11:36:03.765Z,6.65
2023-01-10T11:38:31.054Z,6.07
2023-01-10T11:41:25.684Z,8.02
2023-01-10T11:43:52.317Z,10.18
2023-01-10T11:46:25.737Z,11.45
2023-01-10T11:49:07.114Z,7.90
2023-01-10T11:51:37.885Z,10.90
2023-01-10T11:54:17.605Z,11.40
2023-01-10T11:57:12.106Z,7.32
2023-01-10T12:02:25.031Z,9.85
2023-01-10T12:04:53.762Z,13.50
2023-01-10T12:07:20.500Z,10.07
2023-01-10T12:10:03.724Z,8.60
2023-01-10T12:12:35.208Z,6.77
2023-01-10T12:15:31.330Z,9.50
2023-01-10T12:18:00.204Z,6.70
2023-01-10T12:20:30.145Z,12.70
2023-01-10T12:23:11.184Z,9.02
2023-01-10T12:25:43.051Z,8.68
2023-01-10T12:28:29.078Z,7.38
2023-01-10T12:30:58.290Z,9.82
2023-01-10T12:33:24.875Z,7.57
2023-01-10T12:36:06.907Z,8.98
2023-01-10T12:38:59.453Z,8.50
2023-01-10T12:41:53.640Z,5.60
2023-01-10T12:44:26.884Z,12.00
2023-01-10T12:47:07.406Z,5.40
2023-01-10T12:49:48.907Z,9.00
2023-01-10T12:52:45.599Z,6.55
2023-01-10T12:55:20.789Z,7.63
2023-01-10T12:57:53.374Z,7.07
2023-01-10T13:00:48.555Z,6.32
2023-01-10T13:03:33.324Z,6.68
2023-01-10T13:06:01.244Z,10.13
2023-01-10T13:08:32.476Z,9.82
2023-01-10T13:11:00.892Z,7.57
2023-01-10T13:13:36.782Z,7.53
2023-01-10T13:16:26.696Z,8.00
2023-01-10T13:19:01.297Z,10.32
2023-01-10T13:21:28.648Z,8.80
2023-01-10T13:24:18.853Z,4.45
2023-01-10T13:26:53.033Z,9.50
2023-01-10T13:29:40.368Z,9.88
2023-01-10T13:32:24.033Z,6.97
2023-01-10T13:34:52.100Z,9.38
2023-01-10T13:37:25.911Z,8.75
2023-01-10T13:39:59.414Z,6.85
2023-01-10T13:42:53.246Z,9.95
2023-01-10T13:45:21.332Z,8.85
2023-01-10T13:47:52.746Z,8.90
2023-01-10T13:50:36.544Z,8.32
2023-01-10T13:53:04.208Z,10.52
2023-01-10T13:55:56.707Z,10.65
2023-01-10T13:58:41.838Z,8.00
2023-01-10T14:01:48.929Z,9.65
2023-01-10T14:04:26.649Z,13.25
2023-01-10T14:07:15.398Z,10.13
2023-01-10T14:09:45.660Z,4.63
2023-01-10T14:12:29.789Z,6.45
2023-01-10T14:17:30.950Z,11.23
2023-01-10T14:20:10.028Z,5.00
2023-01-10T14:22:38.883Z,6.82
2023-01-10T14:25:15.634Z,5.72
2023-01-10T14:27:51.353Z,7.50
2023-01-10T14:30:39.263Z,11.50
2023-01-10T14:33:16.632Z,5.70
2023-01-10T14:35:46.647Z,11.02
2023-01-10T14:38:23.466Z,14.13
2023-01-10T14:40:52.646Z,9.80
2023-01-10T14:43:23.858Z,7.93
2023-01-10T14:46:20.989Z,6.35
2023-01-10T14:48:53.436Z,5.07
2023-01-10T14:51:27.117Z,11.65
2023-01-10T14:54:10.762Z,5.85
2023-01-10T14:56:38.939Z,5.93
2023-01-10T14:59:26.127Z,4.35
2023-01-10T15:02:02.175Z,5.03
2023-01-10T15:04:34.627Z,11.32
2023-01-10T15:07:10.261Z,9.38
2023-01-10T15:09:37.538Z,5.38
2023-01-10T15:12:07.386Z,12.48
2023-01-10T15:14:36.921Z,12.63
2023-01-10T15:17:06.515Z,11.35
2023-01-10T15:19:36.837Z,7.53
2023-01-10T15:22:15.673Z,7.55
2023-01-10T15:24:42.728Z,8.63
2023-01-10T15:27:15.396Z,6.95
2023-01-10T15:29:44.614Z,10.32
2023-01-10T15:32:20.538Z,5.28
2023-01-10T15:34:50.617Z,13.45
2023-01-10T15:37:23.329Z,17.27
2023-01-10T15:39:50.116Z,10.55
2023-01-10T15:42:20.874Z,12.88
2023-01-10T15:44:55.686Z,6.78
2023-01-10T15:47:40.407Z,9.02
2023-01-10T15:50:28.386Z,6.57
2023-01-10T15:53:00.647Z,10.90
2023-01-10T15:55:39.284Z,7.25
2023-01-10T15:58:25.205Z,13.85
2023-01-10T16:00:53.391Z,9.68
2023-01-10T16:03:26.306Z,9.68
2023-01-10T16:05:55.897Z,14.07
2023-01-10T16:08:25.881Z,7.05
2023-01-10T16:10:55.046Z,12.68
2023-01-10T16:13:27.974Z,12.85
2023-01-10T16:15:56.180Z,6.85
2023-01-10T16:18:23.297Z,8.98
2023-01-10T16:20:51.539Z,10.18
2023-01-10T16:23:20.060Z,9.88
2023-01-10T16:25:55.988Z,14.25
2023-01-10T16:28:23.988Z,11.07
2023-01-10T16:30:50.812Z,13.32
2023-01-10T16:33:18.924Z,13.15
2023-01-10T16:35:46.924Z,12.05
2023-01-10T16:38:15.693Z,14.30
2023-01-10T16:41:33.569Z,7.88
2023-01-10T16:44:00.765Z,11.25
2023-01-10T16:46:27.851Z,13.77
2023-01-10T16:48:54.929Z,17.63
2023-01-10T16:51:32.633Z,15.60
2023-01-10T16:53:59.731Z,10.07
2023-01-10T16:56:28.059Z,12.30
2023-01-10T16:58:55.510Z,14.77
2023-01-10T17:01:28.572Z,12.05
2023-01-10T17:03:56.196Z,10.57
2023-01-10T17:06:23.382Z,11.30
2023-01-10T17:08:50.209Z,12.95
2023-01-10T17:11:20.991Z,15.02
2023-01-10T17:13:48.091Z,9.88
2023-01-10T17:16:18.640Z,10.75
2023-01-10T17:18:46.701Z,12.90
2023-01-10T17:21:19.051Z,12.80
2023-01-10T17:23:46.329Z,14.50
2023-01-10T17:26:16.184Z,14.60
2023-01-10T17:28:44.818Z,11.73
2023-01-10T17:31:11.951Z,13.43
2023-01-10T17:33:38.564Z,10.60
2023-01-10T17:36:05.624Z,16.33
2023-01-10T17:38:32.400Z,11.40
2023-01-10T17:41:03.337Z,12.73
2023-01-10T17:43:31.257Z,13.55
2023-01-10T17:46:00.890Z,15.38
2023-01-10T17:48:27.779Z,13.82
2023-01-10T17:51:00.084Z,14.13
2023-01-10T17:53:27.259Z,14.80
2023-01-10T17:55:54.192Z,17.92
2023-01-10T17:58:21.432Z,11.93
2023-01-10T18:00:48.911Z,17.33
2023-01-10T18:03:16.304Z,12.65
2023-01-10T18:05:50.711Z,14.13
2023-01-10T18:08:17.859Z,13.80
2023-01-10T18:10:44.836Z,12.57
2023-01-10T18:13:13.095Z,15.30
2023-01-10T18:15:48.418Z,10.88
2023-01-10T18:18:15.559Z,15.40
2023-01-10T18:20:45.625Z,14.57
2023-01-10T18:23:22.488Z,12.75
2023-01-10T18:25:56.503Z,8.98
2023-01-10T18:28:40.128Z,10.13
2023-01-10T18:31:18.443Z,9.50
2023-01-10T18:33:46.473Z,12.85
2023-01-10T18:36:16.787Z,9.45
2023-01-10T18:38:45.655Z,13.77
2023-01-10T18:41:12.851Z,15.52
2023-01-10T18:43:39.475Z,15.73
2023-01-10T18:46:18.814Z,15.10
2023-01-10T18:48:46.162Z,20.83
2023-01-10T18:51:14.509Z,19.70
2023-01-10T18:53:42.106Z,17.27
2023-01-10T18:56:09.421Z,18.08
2023-01-10T18:58:39.435Z,16.90
2023-01-10T19:01:14.824Z,15.20
2023-01-10T19:03:41.620Z,14.13
2023-01-10T19:06:11.049Z,20.08
2023-01-10T19:08:39.136Z,16.85
2023-01-10T19:11:13.919Z,16.90
2023-01-10T19:13:41.376Z,16.67
2023-01-10T19:16:09.453Z,14.45
2023-01-10T19:18:36.536Z,17.92
2023-01-10T19:21:04.307Z,19.40
2023-01-10T19:23:31.181Z,18.00
2023-01-10T19:25:58.591Z,13.85
2023-01-10T19:28:29.443Z,22.60
2023-01-10T19:31:04.287Z,23.45
2023-01-10T19:33:34.216Z,19.60
2023-01-10T19:36:06.338Z,20.88
2023-01-10T19:38:33.344Z,19.02
2023-01-10T19:41:00.018Z,19.83
2023-01-10T19:43:26.691Z,17.73
2023-01-10T19:45:54.265Z,15.32
2023-01-10T19:48:22.153Z,20.35
2023-01-10T19:50:48.797Z,17.40
2023-01-10T19:53:15.447Z,14.82
2023-01-10T19:55:42.076Z,17.65
2023-01-10T19:58:08.743Z,15.38
2023-01-10T20:00:35.353Z,13.00
2023-01-10T20:03:03.184Z,16.35
2023-01-10T20:05:30.290Z,16.23
2023-01-10T20:07:56.961Z,18.67
2023-01-10T20:10:23.656Z,18.48
2023-01-10T20:12:50.339Z,16.90
2023-01-10T20:15:17.077Z,17.45
2023-01-10T20:17:44.369Z,14.55
2023-01-10T20:20:12.047Z,17.02
2023-01-10T20:22:38.789Z,14.30
2023-01-10T20:25:05.942Z,13.98
2023-01-10T20:27:32.607Z,14.63
2023-01-10T20:29:59.197Z,17.02
2023-01-10T20:32:26.427Z,12.77
2023-01-10T20:34:53.061Z,15.38
2023-01-10T20:37:19.863Z,13.65
2023-01-10T20:39:46.820Z,16.80
2023-01-10T20:42:13.377Z,12.13
2023-01-10T20:44:41.268Z,13.77
2023-01-10T20:47:08.063Z,13.68
2023-01-10T20:49:34.840Z,14.15
2023-01-10T20:52:01.420Z,15.75
2023-01-10T20:54:28.048Z,14.63
2023-01-10T20:56:54.721Z,13.05
2023-01-10T20:59:21.409Z,11.18
2023-01-10T21:01:48.053Z,10.02
2023-01-10T21:04:14.827Z,11.57
2023-01-10T21:06:41.520Z,18.70
2023-01-10T21:09:09.341Z,15.00
2023-01-10T21:11:51.521Z,13.80
2023-01-10T21:14:22.668Z,13.35
2023-01-10T21:16:50.325Z,15.50
2023-01-10T21:19:17.209Z,11.25
2023-01-10T21:21:44.107Z,11.27
2023-01-10T21:24:10.869Z,12.00
2023-01-10T21:26:37.458Z,9.93
2023-01-10T21:29:04.306Z,11.80
2023-01-10T21:31:31.003Z,13.55
2023-01-10T21:33:57.723Z,11.93
2023-01-10T21:36:24.391Z,10.35
2023-01-10T21:38:51.010Z,9.80
2023-01-10T21:41:38.100Z,14.45
2023-01-10T21:44:06.144Z,9.40
2023-01-10T21:46:32.873Z,10.10
2023-01-10T21:49:01.205Z,11.68
2023-01-10T21:51:27.841Z,11.10
2023-01-10T21:53:54.511Z,13.73
2023-01-10T21:56:21.208Z,10.90
2023-01-10T21:58:48.132Z,13.80
2023-01-10T22:01:15.465Z,13.43
2023-01-10T22:03:44.123Z,9.77
2023-01-10T22:06:10.753Z,12.65
2023-01-10T22:08:37.428Z,9.02
2023-01-10T22:11:04.093Z,9.95
2023-01-10T22:13:30.709Z,10.70
2023-01-10T22:16:01.423Z,9.75
2023-01-10T22:18:29.802Z,9.05
2023-01-10T22:20:57.841Z,8.18
2023-01-10T22:23:24.792Z,10.05
2023-01-10T22:26:06.354Z,5.97
2023-01-10T22:28:33.937Z,8.98
2023-01-10T22:31:01.641Z,10.40
2023-01-10T22:33:29.886Z,9.07
2023-01-10T22:35:56.506Z,10.13
2023-01-10T22:38:23.188Z,7.47
2023-01-10T22:40:49.881Z,7.32
2023-01-10T22:43:16.477Z,6.38
2023-01-10T22:45:43.320Z,9.10
2023-01-10T22:48:10.399Z,9.65
2023-01-10T22:50:37.045Z,6.00
2023-01-10T22:53:04.119Z,7.43
2023-01-10T22:55:30.726Z,9.50
2023-01-10T22:57:57.307Z,12.73
2023-01-10T23:00:23.915Z,9.32
2023-01-10T23:02:50.597Z,6.68
2023-01-10T23:05:17.259Z,7.75
2023-01-10T23:07:43.843Z,6.80
2023-01-10T23:10:28.432Z,7.35
2023-01-10T23:12:55.611Z,6.65
2023-01-10T23:15:22.225Z,6.78
2023-01-10T23:17:49.036Z,5.57
2023-01-10T23:20:16.703Z,6.28
2023-01-10T23:22:43.310Z,6.60
2023-01-10T23:25:09.910Z,5.88
2023-01-10T23:27:38.276Z,6.93
2023-01-10T23:30:06.600Z,6.88
2023-01-10T23:32:33.230Z,7.20
2023-01-10T23:34:59.877Z,9.60
2023-01-10T23:37:26.492Z,7.57
2023-01-10T23:39:53.108Z,6.43
2023-01-10T23:42:19.709Z,6.38
2023-01-10T23:44:46.369Z,7.47
2023-01-10T23:47:13.841Z,4.78
2023-01-10T23:49:40.544Z,8.88
2023-01-10T23:52:07.127Z,6.45
2023-01-10T23:54:33.727Z,6.88
2023-01-10T23:57:00.419Z,5.28
2023-01-10T23:59:27.051Z,5.65
